createdAt,value
2022-12-14T00:01:31.365Z,14.02
2022-12-14T00:08:21.414Z,14.60
2022-12-14T00:15:07.803Z,13.57
2022-12-14T00:21:53.467Z,13.60
2022-12-14T00:28:41.847Z,13.98
2022-12-14T00:35:27.596Z,14.35
2022-12-14T00:42:13.059Z,13.57
2022-12-14T00:49:01.037Z,13.32
2022-12-14T00:55:49.212Z,13.70
2022-12-14T01:02:35.248Z,13.73
2022-12-14T01:09:26.259Z,14.45
2022-12-14T01:16:14.506Z,14.00
2022-12-14T01:23:00.317Z,14.00
2022-12-14T01:29:48.765Z,13.90
2022-12-14T01:36:38.259Z,14.15
2022-12-14T01:43:24.024Z,14.75
2022-12-14T01:50:22.288Z,14.63
2022-12-14T01:57:07.936Z,15.20
2022-12-14T02:03:56.169Z,14.75
2022-12-14T02:10:44.580Z,14.27
2022-12-14T02:17:31.352Z,15.15
2022-12-14T02:25:12.468Z,14.30
2022-12-14T02:32:17.850Z,14.27
2022-12-14T02:39:12.709Z,15.63
2022-12-14T02:46:06.408Z,14.75
2022-12-14T02:53:05.101Z,13.98
2022-12-14T02:59:53.329Z,14.27
2022-12-14T03:06:38.844Z,14.15
2022-12-14T03:13:32.016Z,13.73
2022-12-14T03:20:22.557Z,15.20
2022-12-14T03:27:12.576Z,14.13
2022-12-14T03:34:05.655Z,14.60
2022-12-14T03:41:10.140Z,14.98
2022-12-14T04:01:28.366Z,15.32
2022-12-14T04:08:22.814Z,15.27
2022-12-14T04:15:27.320Z,16.60
2022-12-14T04:22:20.715Z,16.77
2022-12-14T04:29:24.858Z,16.33
2022-12-14T04:36:11.350Z,16.15
2022-12-14T04:43:04.352Z,16.10
2022-12-14T04:49:55.658Z,16.05
2022-12-14T04:56:49.235Z,16.27
2022-12-14T05:03:40.611Z,17.33
2022-12-14T05:10:37.905Z,17.27
2022-12-14T05:17:24.139Z,17.15
2022-12-14T05:24:12.316Z,17.48
2022-12-14T05:30:58.151Z,16.92
2022-12-14T05:37:43.793Z,17.10
2022-12-14T05:44:32.147Z,17.73
2022-12-14T05:51:17.521Z,17.65
2022-12-14T05:58:03.187Z,17.10
2022-12-14T06:04:51.215Z,18.70
2022-12-14T06:11:40.683Z,17.92
2022-12-14T06:18:26.179Z,18.08
2022-12-14T06:25:14.407Z,19.65
2022-12-14T06:31:59.855Z,19.13
2022-12-14T06:38:45.346Z,19.23
2022-12-14T06:45:34.548Z,19.92
2022-12-14T06:52:26.470Z,19.70
2022-12-14T06:59:13.472Z,18.98
2022-12-14T07:06:03.568Z,19.95
2022-12-14T07:12:48.959Z,21.15
2022-12-14T07:19:34.315Z,20.38
2022-12-14T07:26:24.266Z,19.98
2022-12-14T07:33:10.276Z,23.05
2022-12-14T07:39:55.718Z,21.10
2022-12-14T07:46:44.422Z,21.33
2022-12-14T07:53:30.085Z,21.33
2022-12-14T08:00:17.365Z,22.40
2022-12-14T08:13:50.572Z,22.20
2022-12-14T08:20:36.289Z,21.63
2022-12-14T08:27:24.233Z,21.55
2022-12-14T08:34:10.071Z,21.65
2022-12-14T08:40:55.592Z,21.48
2022-12-14T08:47:43.597Z,22.45
2022-12-14T08:54:28.944Z,22.73
2022-12-14T09:01:17.268Z,22.27
2022-12-14T09:08:05.375Z,22.02
2022-12-14T09:14:50.870Z,22.30
2022-12-14T09:21:36.605Z,23.48
2022-12-14T09:28:24.926Z,22.25
2022-12-14T09:35:11.258Z,23.48
2022-12-14T09:42:10.088Z,21.98
2022-12-14T09:48:59.968Z,22.90
2022-12-14T09:55:49.150Z,22.92
2022-12-14T10:02:55.682Z,21.42
2022-12-14T10:09:51.561Z,23.08
2022-12-14T10:16:52.051Z,22.08
2022-12-14T10:23:39.040Z,20.65
2022-12-14T10:30:27.047Z,21.23
2022-12-14T10:37:28.333Z,21.08
2022-12-14T10:44:23.785Z,20.70
2022-12-14T10:51:17.166Z,19.88
2022-12-14T10:58:03.283Z,20.75
2022-12-14T11:04:53.717Z,20.97
2022-12-14T11:11:43.068Z,21.20
2022-12-14T11:18:34.193Z,22.77
2022-12-14T11:25:38.950Z,22.70
2022-12-14T11:32:28.573Z,25.58
2022-12-14T11:39:25.915Z,21.60
2022-12-14T11:46:11.579Z,24.27
2022-12-14T11:53:11.544Z,20.98
2022-12-14T12:00:00.644Z,23.58
2022-12-14T12:06:46.246Z,23.33
2022-12-14T12:13:39.823Z,22.50
2022-12-14T12:20:32.120Z,20.15
2022-12-14T12:27:19.431Z,21.77
2022-12-14T12:34:15.122Z,21.52
2022-12-14T12:41:08.813Z,21.13
2022-12-14T12:47:58.844Z,21.23
2022-12-14T12:54:57.204Z,20.10
2022-12-14T13:01:48.150Z,21.95
2022-12-14T13:08:39.227Z,20.63
2022-12-14T13:15:32.877Z,21.25
2022-12-14T13:22:25.241Z,20.60
2022-12-14T13:29:21.061Z,19.60
2022-12-14T13:36:40.229Z,19.02
2022-12-14T13:43:51.845Z,19.10
2022-12-14T13:50:52.935Z,19.25
2022-12-14T13:57:47.565Z,18.67
2022-12-14T14:04:36.459Z,18.40
2022-12-14T14:18:51.102Z,20.10
2022-12-14T14:25:46.666Z,19.23
2022-12-14T14:32:43.855Z,18.67
2022-12-14T14:39:56.162Z,18.27
2022-12-14T14:46:49.223Z,17.75
2022-12-14T14:53:37.014Z,18.77
2022-12-14T15:00:25.590Z,19.80
2022-12-14T15:07:16.526Z,20.08
2022-12-14T15:14:06.944Z,21.25
2022-12-14T15:21:07.605Z,19.65
2022-12-14T15:27:53.432Z,19.85
2022-12-14T15:34:38.975Z,19.67
2022-12-14T15:41:30.368Z,17.92
2022-12-14T15:48:16.979Z,21.75
2022-12-14T15:55:03.168Z,20.08
2022-12-14T16:01:56.026Z,20.97
2022-12-14T16:08:50.519Z,20.27
2022-12-14T16:15:36.298Z,19.90
2022-12-14T16:22:27.897Z,20.08
2022-12-14T16:29:26.479Z,19.23
2022-12-14T16:36:25.088Z,21.10
2022-12-14T16:43:32.110Z,24.10
2022-12-14T16:50:55.652Z,23.48
2022-12-14T16:57:30.615Z,20.80
2022-12-14T17:04:20.390Z,20.95
2022-12-14T17:11:06.550Z,20.92
2022-12-14T17:17:55.556Z,18.97
2022-12-14T17:24:43.554Z,20.45
2022-12-14T17:31:31.167Z,21.58
2022-12-14T17:38:18.625Z,20.95
2022-12-14T17:45:07.690Z,19.83
2022-12-14T17:51:53.300Z,20.55
2022-12-14T17:58:38.701Z,18.80
2022-12-14T18:05:26.865Z,19.45
2022-12-14T18:12:25.448Z,18.67
2022-12-14T18:19:10.908Z,20.10
2022-12-14T18:26:04.096Z,21.50
2022-12-14T18:32:49.536Z,23.20
2022-12-14T18:39:35.053Z,28.33
2022-12-14T18:46:23.045Z,31.00
2022-12-14T18:53:09.119Z,26.75
2022-12-14T18:59:54.787Z,24.17
2022-12-14T19:06:44.471Z,23.95
2022-12-14T19:13:33.285Z,24.92
2022-12-14T19:20:23.265Z,26.08
2022-12-14T19:27:11.635Z,25.75
2022-12-14T19:33:57.002Z,28.20
2022-12-14T19:40:43.550Z,26.98
2022-12-14T19:47:31.592Z,26.60
2022-12-14T19:54:17.062Z,26.85
2022-12-14T20:01:02.469Z,28.40
2022-12-14T20:07:50.650Z,26.70
2022-12-14T20:14:39.858Z,25.83
2022-12-14T20:21:29.227Z,30.17
2022-12-14T20:28:18.127Z,29.63
2022-12-14T20:35:05.532Z,31.15
2022-12-14T20:41:50.903Z,30.98
2022-12-14T20:48:41.280Z,28.95
2022-12-14T20:55:26.971Z,31.23
2022-12-14T21:02:20.828Z,28.33
2022-12-14T21:09:12.176Z,27.92
2022-12-14T21:15:57.773Z,32.72
2022-12-14T21:22:43.239Z,32.17
2022-12-14T21:29:31.278Z,27.55
2022-12-14T21:36:17.360Z,28.85
2022-12-14T21:43:04.080Z,28.80
2022-12-14T21:49:52.440Z,27.92
2022-12-14T21:56:53.304Z,28.75
2022-12-14T22:03:38.848Z,29.13
2022-12-14T22:10:27.125Z,27.67
2022-12-14T22:17:15.355Z,27.48
2022-12-14T22:24:02.070Z,26.58
2022-12-14T22:30:50.052Z,26.40
2022-12-14T22:37:35.720Z,26.30
2022-12-14T22:44:21.105Z,26.90
2022-12-14T22:51:11.763Z,32.33
2022-12-14T22:57:58.250Z,25.90
2022-12-14T23:04:43.828Z,27.60
2022-12-14T23:11:44.855Z,24.83
2022-12-14T23:18:42.812Z,25.30
2022-12-14T23:25:40.692Z,26.73
2022-12-14T23:32:41.127Z,25.80
2022-12-14T23:39:39.054Z,25.92
2022-12-14T23:46:37.030Z,25.27
2022-12-14T23:53:37.525Z,24.77
